Tahuya, Washington
Current Conditions -  °F | °C
As of 5:53 AM on Sunday 25 Jan 2015 (Local Time) from KSHN Reporting Station
Overcast Overcast  
Wind Chill: 52°   Ceiling: 1100
Heat Index: 52°   Visibility: 7mi
Dew Point: 52°   Wind: 5mph
Humidity: 100%   Direction: 120°ESE
Pressure: 30.17"   Gusts: NA
Location:  47.37°N, 123.06°W
Report Text: KSHN 251353Z AUTO 12004KT 7SM FEW002 OVC011 11/11 A3017 RMK AO2 SLP217 T01110111
Loading
Personal Weather Stations






























Interactive Weather Map New forecast layout! Learn more

10-Day Weather Forecast

Advertisements
Track Severe Weather on mobile